Time;durP1;ratioP1;P1;durP2;ratioP2;P2;SDS_P1;SDS_P2;PMS_P1;PMS_P2;Temp;Humidity;BMP_temperature;BMP_pressure;BME280_temperature;BME280_humidity;BME280_pressure;Samples;Min_cycle;Max_cycle;Signal;HPM_P1;HPM_P2
2021/10/14 00:01:33;;;;;;;4.05;1.20;;;21.30;55.40;;;;;;5014564;28;20080;-66
2021/10/14 00:03:59;;;;;;;8.82;1.13;;;21.30;55.50;;;;;;5015782;28;20470;-66
2021/10/14 00:06:25;;;;;;;8.40;1.20;;;21.30;55.40;;;;;;5014821;28;20080;-66
2021/10/14 00:08:51;;;;;;;5.40;1.30;;;21.30;55.30;;;;;;5016083;28;20045;-66
2021/10/14 00:11:16;;;;;;;8.20;1.10;;;21.40;55.50;;;;;;5015549;28;20053;-67
2021/10/14 00:13:42;;;;;;;10.38;1.65;;;21.30;55.40;;;;;;5017224;28;20081;-66
2021/10/14 00:16:08;;;;;;;4.88;1.10;;;21.30;56.10;;;;;;5015309;28;20042;-66
2021/10/14 00:18:33;;;;;;;9.55;1.27;;;21.30;55.40;;;;;;5016095;28;20022;-65
2021/10/14 00:20:59;;;;;;;5.78;1.30;;;21.30;55.40;;;;;;5018882;28;20502;-66
2021/10/14 00:23:25;;;;;;;3.95;1.20;;;21.30;55.50;;;;;;5015727;28;20148;-66
2021/10/14 00:25:51;;;;;;;3.70;1.10;;;21.30;55.60;;;;;;5014785;28;20132;-65
2021/10/14 00:28:16;;;;;;;8.85;1.45;;;21.30;55.50;;;;;;5016623;28;20065;-66
2021/10/14 00:30:42;;;;;;;6.80;1.30;;;21.30;55.50;;;;;;5013899;28;20037;-67
2021/10/14 00:33:08;;;;;;;4.63;1.08;;;21.30;55.70;;;;;;5014610;28;20037;-67
2021/10/14 00:35:33;;;;;;;6.07;1.27;;;21.30;55.50;;;;;;5015142;28;20037;-65
2021/10/14 00:37:59;;;;;;;4.53;0.98;;;21.30;55.40;;;;;;5013706;28;20518;-65
2021/10/14 00:40:25;;;;;;;4.85;1.15;;;21.30;55.40;;;;;;5013468;28;20387;-66
2021/10/14 00:42:52;;;;;;;4.70;1.10;;;21.30;55.50;;;;;;5014900;28;20136;-66
2021/10/14 00:45:19;;;;;;;4.63;1.00;;;21.30;55.40;;;;;;5013962;28;20050;-65
2021/10/14 00:47:44;;;;;;;4.00;1.20;;;21.30;55.40;;;;;;5016221;28;20042;-67
2021/10/14 00:50:10;;;;;;;5.53;1.30;;;21.30;55.30;;;;;;5018828;28;20494;-66
2021/10/14 00:52:39;;;;;;;4.97;1.30;;;21.30;55.30;;;;;;5013378;28;20041;-66
2021/10/14 00:55:06;;;;;;;3.97;1.15;;;21.30;55.40;;;;;;5014819;28;20049;-66
2021/10/14 00:57:32;;;;;;;9.93;1.10;;;21.30;55.30;;;;;;5013328;28;20094;-66
2021/10/14 00:59:59;;;;;;;6.90;1.30;;;21.30;55.40;;;;;;5014513;28;20038;-65
2021/10/14 01:02:24;;;;;;;4.97;1.17;;;21.30;55.30;;;;;;5014951;28;20046;-66
2021/10/14 01:04:53;;;;;;;5.80;1.52;;;21.30;55.30;;;;;;5014860;28;20041;-64
2021/10/14 01:07:18;;;;;;;6.68;1.40;;;21.30;55.40;;;;;;5014148;28;20042;-66
2021/10/14 01:09:44;;;;;;;5.38;1.20;;;21.30;55.30;;;;;;5013537;28;20447;-65
2021/10/14 01:12:10;;;;;;;6.95;1.20;;;21.30;55.30;;;;;;5014724;28;20060;-66
2021/10/14 01:14:35;;;;;;;6.03;1.20;;;21.30;55.40;;;;;;5013179;28;20042;-66
2021/10/14 01:17:01;;;;;;;3.88;1.00;;;21.20;55.10;;;;;;5017307;28;20116;-66
2021/10/14 01:19:27;;;;;;;5.28;1.10;;;21.20;55.20;;;;;;5014492;28;20049;-67
2021/10/14 01:21:53;;;;;;;6.72;1.35;;;21.20;55.00;;;;;;5015234;28;20087;-66
2021/10/14 01:24:19;;;;;;;4.03;1.15;;;21.20;55.00;;;;;;5015486;28;20038;-66
2021/10/14 01:26:45;;;;;;;4.30;1.08;;;21.20;55.00;;;;;;5019549;28;20403;-67
2021/10/14 01:29:12;;;;;;;6.18;1.23;;;21.20;55.10;;;;;;5015006;28;20050;-66
2021/10/14 01:31:38;;;;;;;4.40;1.08;;;21.30;55.10;;;;;;5016583;28;20048;-65
2021/10/14 01:34:05;;;;;;;5.10;1.10;;;21.20;55.10;;;;;;5014123;28;20054;-65
2021/10/14 01:36:30;;;;;;;7.57;1.45;;;21.20;55.00;;;;;;5015202;28;20033;-66
2021/10/14 01:38:56;;;;;;;4.38;1.00;;;21.20;55.00;;;;;;5014563;28;20396;-66
2021/10/14 01:41:22;;;;;;;8.38;1.20;;;21.20;55.00;;;;;;5013635;28;20392;-66
2021/10/14 01:43:48;;;;;;;4.85;1.20;;;21.20;55.00;;;;;;5013610;28;20040;-65
2021/10/14 01:46:14;;;;;;;3.50;1.15;;;21.20;55.00;;;;;;5013783;28;20058;-65
2021/10/14 01:48:39;;;;;;;4.13;1.10;;;21.20;54.80;;;;;;5012988;28;20040;-65
2021/10/14 01:51:05;;;;;;;5.28;1.23;;;21.20;54.90;;;;;;5012682;28;20757;-66
2021/10/14 01:53:31;;;;;;;10.45;1.20;;;21.20;55.00;;;;;;5015857;28;20050;-66
2021/10/14 01:55:57;;;;;;;3.55;1.10;;;21.20;55.80;;;;;;5014415;28;20054;-66
2021/10/14 01:58:23;;;;;;;3.38;1.02;;;21.20;55.00;;;;;;5013098;28;20055;-66
2021/10/14 02:00:50;;;;;;;4.47;1.27;;;21.20;54.70;;;;;;5013417;28;20044;-66
2021/10/14 02:03:16;;;;;;;5.90;1.00;;;21.20;54.60;;;;;;5015204;28;20520;-66
2021/10/14 02:05:42;;;;;;;5.10;1.10;;;21.20;54.50;;;;;;5014677;28;20042;-65
2021/10/14 02:08:08;;;;;;;4.40;1.00;;;21.20;54.50;;;;;;5013197;28;20050;-66
2021/10/14 02:10:34;;;;;;;3.85;1.20;;;21.20;54.50;;;;;;5014238;28;20033;-66
2021/10/14 02:13:00;;;;;;;5.25;1.17;;;21.20;54.50;;;;;;5014905;28;20410;-66
2021/10/14 02:15:27;;;;;;;4.45;1.20;;;21.20;54.40;;;;;;5015071;28;20053;-64
2021/10/14 02:17:53;;;;;;;4.90;1.20;;;21.20;54.40;;;;;;5013446;28;20052;-66
2021/10/14 02:20:19;;;;;;;4.68;1.20;;;21.20;54.30;;;;;;5017248;28;20045;-66
2021/10/14 02:22:45;;;;;;;4.57;1.17;;;21.20;54.30;;;;;;5013626;28;20617;-65
2021/10/14 02:25:12;;;;;;;2.90;0.93;;;21.20;54.30;;;;;;5014529;28;20046;-66
2021/10/14 02:27:38;;;;;;;4.45;1.10;;;21.20;54.20;;;;;;5012599;28;20065;-66
2021/10/14 02:30:05;;;;;;;4.80;1.20;;;21.20;54.20;;;;;;5014171;28;20395;-67
2021/10/14 02:32:30;;;;;;;4.13;1.20;;;21.20;54.30;;;;;;5012929;28;20029;-66
2021/10/14 02:34:57;;;;;;;4.43;1.10;;;21.20;54.10;;;;;;5012173;28;20056;-68
2021/10/14 02:37:24;;;;;;;4.32;1.00;;;21.20;54.20;;;;;;5014526;28;20048;-68
2021/10/14 02:39:50;;;;;;;4.18;1.00;;;21.20;54.20;;;;;;5012557;28;20042;-66
2021/10/14 02:42:15;;;;;;;3.33;1.00;;;21.20;54.20;;;;;;5013633;28;20049;-65
2021/10/14 02:44:42;;;;;;;6.25;1.00;;;21.20;54.10;;;;;;5012469;28;20569;-67
2021/10/14 02:47:08;;;;;;;5.07;1.17;;;21.20;54.10;;;;;;5013134;28;20081;-66
2021/10/14 02:49:34;;;;;;;3.70;0.95;;;21.20;54.10;;;;;;5015470;28;20126;-65
2021/10/14 02:51:59;;;;;;;5.55;1.00;;;21.20;54.10;;;;;;5011997;28;20522;-66
2021/10/14 02:54:25;;;;;;;4.88;1.17;;;21.20;54.10;;;;;;5012271;28;20057;-66
2021/10/14 02:56:50;;;;;;;3.95;1.08;;;21.20;54.10;;;;;;5012642;28;20050;-66
2021/10/14 02:59:16;;;;;;;3.70;1.05;;;21.20;54.10;;;;;;5015962;28;20041;-66
2021/10/14 03:01:42;;;;;;;4.38;1.20;;;21.20;54.10;;;;;;5021168;28;20128;-66
2021/10/14 03:04:07;;;;;;;4.40;1.02;;;21.20;54.10;;;;;;5017085;28;20042;-66
2021/10/14 03:06:33;;;;;;;3.55;1.08;;;21.20;54.00;;;;;;5016996;28;20038;-66
2021/10/14 03:08:58;;;;;;;3.90;1.05;;;21.20;54.10;;;;;;5016396;28;20042;-66
2021/10/14 03:11:24;;;;;;;3.85;0.90;;;21.20;54.00;;;;;;5018051;28;20410;-65
2021/10/14 03:13:50;;;;;;;3.95;1.02;;;21.20;54.10;;;;;;5017061;28;20037;-66
2021/10/14 03:16:15;;;;;;;4.00;1.15;;;21.20;54.00;;;;;;5015840;28;20085;-66
2021/10/14 03:18:42;;;;;;;2.85;0.95;;;21.20;54.10;;;;;;5016075;28;20072;-66
2021/10/14 03:21:07;;;;;;;4.50;1.23;;;21.20;53.80;;;;;;5015938;28;20505;-66
2021/10/14 03:23:33;;;;;;;3.70;1.10;;;21.10;53.70;;;;;;5014614;28;20049;-66
2021/10/14 03:26:02;;;;;;;4.93;1.23;;;21.20;53.70;;;;;;5020408;28;20329;-65
2021/10/14 03:28:29;;;;;;;3.20;0.90;;;21.20;53.60;;;;;;5017447;28;20065;-66
2021/10/14 03:30:55;;;;;;;4.45;1.30;;;21.20;53.40;;;;;;5015643;28;20045;-65
2021/10/14 03:33:21;;;;;;;4.65;1.27;;;21.20;53.30;;;;;;5015023;28;20131;-66
2021/10/14 03:35:46;;;;;;;5.45;1.20;;;21.20;53.10;;;;;;5015488;28;20183;-67
2021/10/14 03:38:12;;;;;;;4.03;1.20;;;21.20;53.10;;;;;;5016180;28;20133;-66
2021/10/14 03:40:38;;;;;;;4.30;1.20;;;21.20;52.90;;;;;;5016888;28;20461;-67
2021/10/14 03:43:03;;;;;;;4.82;1.10;;;21.30;53.10;;;;;;5016087;28;20121;-65
2021/10/14 03:45:29;;;;;;;4.45;1.13;;;21.30;53.10;;;;;;5017179;28;20036;-67
2021/10/14 03:47:54;;;;;;;3.92;0.90;;;21.40;53.40;;;;;;5016031;28;20557;-67
2021/10/14 03:50:20;;;;;;;4.22;1.05;;;21.40;53.30;;;;;;5017195;28;20150;-67
2021/10/14 03:52:46;;;;;;;3.70;0.93;;;21.40;53.20;;;;;;5014570;28;20103;-67
2021/10/14 03:55:12;;;;;;;3.05;0.80;;;21.50;53.30;;;;;;5016820;28;20042;-67
2021/10/14 03:57:37;;;;;;;4.75;1.13;;;21.50;53.30;;;;;;5017501;28;20046;-67
2021/10/14 04:00:08;;;;;;;2.70;0.80;;;21.60;53.30;;;;;;5016842;28;20061;-66
2021/10/14 04:02:33;;;;;;;4.40;0.90;;;21.60;53.30;;;;;;5017350;28;20099;-67
2021/10/14 04:04:59;;;;;;;3.70;1.00;;;21.60;53.20;;;;;;5016865;28;20054;-66
2021/10/14 04:07:25;;;;;;;3.45;0.95;;;21.70;53.30;;;;;;5016748;28;20087;-67
2021/10/14 04:09:51;;;;;;;3.58;1.00;;;21.70;53.20;;;;;;5017316;28;20074;-66
2021/10/14 04:12:16;;;;;;;6.15;1.50;;;21.70;53.10;;;;;;5015579;28;20518;-66
2021/10/14 04:14:42;;;;;;;8.27;1.52;;;21.70;53.10;;;;;;5013154;28;20044;-66
2021/10/14 04:17:08;;;;;;;15.30;2.35;;;21.70;53.10;;;;;;5015612;28;20064;-66
2021/10/14 04:19:33;;;;;;;13.65;2.38;;;21.80;53.30;;;;;;5015251;28;20087;-67
2021/10/14 04:21:59;;;;;;;22.92;3.90;;;21.80;53.20;;;;;;5017193;28;20046;-66
2021/10/14 04:24:28;;;;;;;24.75;4.05;;;21.80;53.30;;;;;;5015233;28;20064;-66
2021/10/14 04:26:54;;;;;;;26.75;3.35;;;21.80;53.30;;;;;;5018855;28;20073;-66
2021/10/14 04:29:21;;;;;;;21.40;4.40;;;21.80;53.30;;;;;;5015407;28;20042;-67
2021/10/14 04:31:51;;;;;;;29.65;4.82;;;21.80;53.20;;;;;;5016108;28;20037;-67
2021/10/14 04:34:18;;;;;;;24.40;4.40;;;21.80;53.30;;;;;;5014342;28;20038;-67
2021/10/14 04:36:44;;;;;;;26.45;5.00;;;21.80;53.30;;;;;;5018165;28;20042;-66
2021/10/14 04:39:10;;;;;;;24.77;4.30;;;21.80;53.40;;;;;;5014853;28;20048;-68
2021/10/14 04:41:36;;;;;;;33.67;5.32;;;21.80;53.30;;;;;;5015761;28;20049;-68
2021/10/14 04:44:03;;;;;;;30.05;5.07;;;21.80;53.30;;;;;;5012490;28;20042;-68
2021/10/14 04:46:29;;;;;;;26.75;5.70;;;21.80;53.30;;;;;;5012391;28;20049;-68
2021/10/14 04:48:54;;;;;;;26.98;5.20;;;21.80;53.40;;;;;;5016357;28;20037;-68
2021/10/14 04:51:20;;;;;;;30.27;5.43;;;21.80;53.70;;;;;;5015104;28;20698;-68
2021/10/14 04:53:45;;;;;;;33.95;5.80;;;21.80;53.40;;;;;;5013662;28;20045;-68
2021/10/14 04:56:11;;;;;;;24.65;4.30;;;21.80;53.70;;;;;;5015813;28;20040;-68
2021/10/14 04:58:37;;;;;;;28.05;5.07;;;21.80;53.30;;;;;;5012848;28;20414;-69
2021/10/14 05:01:02;;;;;;;32.00;5.28;;;21.80;53.70;;;;;;5015504;28;20117;-67
2021/10/14 05:03:28;;;;;;;34.97;5.22;;;21.80;54.70;;;;;;5014482;28;20081;-66
2021/10/14 05:05:54;;;;;;;23.10;5.05;;;21.70;55.00;;;;;;5015599;28;20038;-65
2021/10/14 05:08:20;;;;;;;30.65;5.40;;;21.70;55.40;;;;;;5016279;28;20071;-65
2021/10/14 05:10:45;;;;;;;23.10;4.90;;;21.70;55.30;;;;;;5016913;28;20045;-66
2021/10/14 05:13:11;;;;;;;31.80;5.18;;;21.70;55.30;;;;;;5017693;28;20076;-64
2021/10/14 05:15:40;;;;;;;25.63;4.95;;;21.70;55.20;;;;;;5017602;28;20041;-65
2021/10/14 05:18:07;;;;;;;29.35;4.97;;;21.70;55.30;;;;;;5017031;28;20034;-67
2021/10/14 05:20:33;;;;;;;31.83;5.25;;;21.70;55.10;;;;;;5013678;28;20037;-66
2021/10/14 05:22:58;;;;;;;24.25;4.70;;;21.70;55.30;;;;;;5014250;28;20133;-67
2021/10/14 05:25:25;;;;;;;20.67;4.72;;;21.70;55.30;;;;;;5016083;28;20133;-66
2021/10/14 05:27:51;;;;;;;22.77;4.40;;;21.60;55.10;;;;;;5012876;28;20036;-66
2021/10/14 05:30:18;;;;;;;25.25;4.18;;;21.70;55.20;;;;;;5013482;28;20045;-66
2021/10/14 05:32:43;;;;;;;15.98;3.60;;;21.60;55.10;;;;;;5013778;28;20410;-66
2021/10/14 05:35:10;;;;;;;15.50;4.05;;;21.60;55.10;;;;;;5015443;28;20041;-65
2021/10/14 05:37:36;;;;;;;19.55;4.15;;;21.60;55.10;;;;;;5014946;28;20056;-65
2021/10/14 05:40:03;;;;;;;19.80;4.32;;;21.60;55.00;;;;;;5012632;28;20045;-65
2021/10/14 05:42:30;;;;;;;19.35;4.20;;;21.60;55.10;;;;;;5012537;28;20494;-66
2021/10/14 05:44:56;;;;;;;18.33;4.10;;;21.60;55.70;;;;;;5012991;28;20045;-66
2021/10/14 05:47:22;;;;;;;18.25;3.80;;;21.60;55.20;;;;;;5012631;28;20085;-65
2021/10/14 05:49:47;;;;;;;18.50;3.83;;;21.60;55.40;;;;;;5012281;28;20049;-66
2021/10/14 05:52:13;;;;;;;15.43;3.58;;;21.60;55.40;;;;;;5011430;28;20053;-65
2021/10/14 05:54:39;;;;;;;20.17;3.97;;;21.60;55.40;;;;;;5014678;28;20049;-66
2021/10/14 05:57:05;;;;;;;18.35;3.70;;;21.60;55.40;;;;;;5014136;28;20042;-67
2021/10/14 05:59:30;;;;;;;24.65;4.53;;;21.60;55.30;;;;;;5020711;28;20720;-66
2021/10/14 06:01:56;;;;;;;31.75;5.25;;;21.60;56.30;;;;;;5012522;28;20517;-66
2021/10/14 06:04:22;;;;;;;40.25;5.55;;;21.60;56.20;;;;;;5013941;28;20121;-66
2021/10/14 06:06:48;;;;;;;29.17;5.43;;;21.60;56.30;;;;;;5012566;28;20425;-66
2021/10/14 06:09:13;;;;;;;29.70;5.07;;;21.60;56.60;;;;;;5014848;28;20898;-66
2021/10/14 06:11:39;;;;;;;27.52;4.50;;;21.60;57.00;;;;;;5012405;28;20208;-66
2021/10/14 06:14:04;;;;;;;31.45;4.68;;;21.60;57.00;;;;;;5012089;28;20088;-65
2021/10/14 06:16:30;;;;;;;30.08;4.43;;;21.60;56.90;;;;;;5014672;28;20072;-67
2021/10/14 06:18:56;;;;;;;18.83;3.75;;;21.60;57.00;;;;;;5012339;28;20041;-67
2021/10/14 06:21:21;;;;;;;20.98;4.55;;;21.60;57.00;;;;;;5011880;28;20518;-66
2021/10/14 06:23:49;;;;;;;28.92;4.85;;;21.60;57.40;;;;;;5014736;28;20456;-66
2021/10/14 06:26:15;;;;;;;20.85;4.18;;;21.60;57.60;;;;;;5012481;28;20561;-67
2021/10/14 06:28:40;;;;;;;27.83;4.82;;;21.60;57.70;;;;;;5013772;28;20096;-66
2021/10/14 06:31:06;;;;;;;47.53;5.05;;;21.60;57.50;;;;;;5014827;28;20665;-67
2021/10/14 06:33:32;;;;;;;33.67;4.60;;;21.60;57.90;;;;;;5014908;28;20042;-67
2021/10/14 06:35:58;;;;;;;25.65;4.38;;;21.60;57.70;;;;;;5017347;28;20100;-66
2021/10/14 06:38:23;;;;;;;25.23;4.18;;;21.60;57.90;;;;;;5017818;28;20040;-66
2021/10/14 06:40:49;;;;;;;30.20;4.18;;;21.60;58.10;;;;;;5019604;28;20540;-66
2021/10/14 06:43:16;;;;;;;21.40;4.18;;;21.60;58.10;;;;;;5017911;28;20088;-66
2021/10/14 06:45:41;;;;;;;29.92;4.43;;;21.60;57.90;;;;;;5015291;28;20053;-69
2021/10/14 06:48:09;;;;;;;14.90;3.55;;;21.60;59.90;;;;;;5016553;28;20034;-69
2021/10/14 06:50:34;;;;;;;16.02;3.63;;;21.70;57.50;;;;;;5015727;28;20045;-70
2021/10/14 06:53:01;;;;;;;16.13;3.20;;;21.80;57.50;;;;;;5018422;28;20038;-71
2021/10/14 06:55:27;;;;;;;16.92;3.30;;;21.90;57.90;;;;;;5018015;28;20060;-69
2021/10/14 06:57:53;;;;;;;17.30;2.70;;;22.10;57.80;;;;;;5016393;28;20041;-69
2021/10/14 07:00:22;;;;;;;15.75;3.40;;;22.20;58.00;;;;;;5016765;28;20041;-71
2021/10/14 07:02:49;;;;;;;15.75;2.60;;;22.30;57.70;;;;;;5017385;28;20489;-70
2021/10/14 07:05:14;;;;;;;18.90;2.85;;;22.40;57.60;;;;;;5015794;28;20100;-69
2021/10/14 07:07:40;;;;;;;12.60;3.15;;;22.50;57.60;;;;;;5017495;28;20057;-70
2021/10/14 07:10:08;;;;;;;14.68;3.10;;;22.60;57.40;;;;;;5017296;28;20045;-70
2021/10/14 07:12:36;;;;;;;13.98;2.92;;;22.70;57.70;;;;;;5016916;28;20040;-70
2021/10/14 07:15:03;;;;;;;15.68;3.53;;;22.80;57.20;;;;;;5017991;28;20049;-70
2021/10/14 07:17:28;;;;;;;22.50;3.72;;;22.80;57.10;;;;;;5017263;28;20073;-69
2021/10/14 07:19:54;;;;;;;23.60;3.40;;;22.80;57.20;;;;;;5015053;28;20151;-69
2021/10/14 07:22:20;;;;;;;16.15;3.70;;;22.80;57.00;;;;;;5013127;28;20045;-69
2021/10/14 07:24:45;;;;;;;15.48;3.85;;;22.80;56.80;;;;;;5016500;28;20057;-70
2021/10/14 07:27:11;;;;;;;19.73;3.22;;;22.90;56.90;;;;;;5016244;28;20050;-69
2021/10/14 07:29:37;;;;;;;29.30;3.78;;;22.90;56.90;;;;;;5014959;28;20104;-70
2021/10/14 07:32:05;;;;;;;20.85;3.63;;;22.90;57.00;;;;;;5016368;28;20565;-70
2021/10/14 07:34:30;;;;;;;14.00;3.80;;;22.90;56.80;;;;;;5016521;28;20041;-68
2021/10/14 07:36:56;;;;;;;17.42;3.55;;;22.90;57.20;;;;;;5014770;28;20053;-70
2021/10/14 07:39:22;;;;;;;15.75;3.42;;;23.00;57.60;;;;;;5017466;28;20044;-69
2021/10/14 07:41:47;;;;;;;30.30;3.40;;;23.10;57.30;;;;;;5016839;28;20030;-70
2021/10/14 07:44:15;;;;;;;12.65;3.20;;;23.20;57.70;;;;;;5014325;28;20054;-69
2021/10/14 07:46:41;;;;;;;19.10;3.17;;;23.30;57.70;;;;;;5014044;28;20033;-70
2021/10/14 07:49:07;;;;;;;13.15;2.33;;;23.30;57.30;;;;;;5014669;28;20521;-70
2021/10/14 07:51:35;;;;;;;14.07;2.78;;;23.40;57.30;;;;;;5015630;28;20541;-70
2021/10/14 07:54:01;;;;;;;9.38;2.40;;;23.40;58.20;;;;;;5016139;28;20030;-69
2021/10/14 07:56:27;;;;;;;14.43;2.80;;;23.50;57.10;;;;;;5014958;28;20041;-70
2021/10/14 07:58:52;;;;;;;12.63;2.30;;;23.60;58.00;;;;;;5015886;28;20044;-71
2021/10/14 08:01:18;;;;;;;12.40;2.63;;;23.70;57.30;;;;;;5014932;28;20178;-68
2021/10/14 08:03:44;;;;;;;9.75;2.45;;;23.70;57.20;;;;;;5015950;28;20046;-70
2021/10/14 08:06:10;;;;;;;12.43;2.50;;;23.70;57.10;;;;;;5018154;28;20045;-71
2021/10/14 08:08:36;;;;;;;21.30;2.38;;;23.70;56.60;;;;;;5014867;28;20645;-69
2021/10/14 08:11:01;;;;;;;9.95;2.35;;;23.80;56.80;;;;;;5016549;28;20099;-70
2021/10/14 08:13:27;;;;;;;20.30;2.75;;;23.80;56.60;;;;;;5016497;28;20061;-70
2021/10/14 08:15:53;;;;;;;10.07;2.40;;;23.80;56.70;;;;;;5015493;28;20044;-70
2021/10/14 08:18:20;;;;;;;10.52;2.30;;;23.80;56.40;;;;;;5014612;28;20042;-70
2021/10/14 08:20:48;;;;;;;9.80;2.38;;;23.90;56.60;;;;;;5014371;28;20041;-71
2021/10/14 08:23:14;;;;;;;14.10;2.55;;;23.90;57.00;;;;;;5014768;28;20046;-70
2021/10/14 08:25:39;;;;;;;9.93;2.22;;;23.90;56.30;;;;;;5016268;28;20033;-69
2021/10/14 08:28:05;;;;;;;10.98;2.30;;;23.90;56.00;;;;;;5015185;28;20042;-70
2021/10/14 08:30:31;;;;;;;9.23;2.10;;;24.00;56.20;;;;;;5015494;28;20222;-71
2021/10/14 08:32:56;;;;;;;10.23;2.80;;;24.00;55.70;;;;;;5020143;28;20038;-71
2021/10/14 08:35:23;;;;;;;11.63;2.53;;;23.90;56.10;;;;;;5016161;28;20133;-70
2021/10/14 08:37:49;;;;;;;19.75;2.60;;;23.80;55.30;;;;;;5012657;28;20045;-71
2021/10/14 08:40:16;;;;;;;13.38;2.10;;;23.80;56.80;;;;;;5015261;28;20124;-70
2021/10/14 08:42:43;;;;;;;9.52;2.20;;;23.80;55.80;;;;;;5019598;28;20057;-70
2021/10/14 08:45:11;;;;;;;8.70;1.88;;;23.80;56.00;;;;;;5015209;28;20046;-70
2021/10/14 08:47:39;;;;;;;11.70;2.08;;;23.90;55.70;;;;;;5013696;28;20085;-71
2021/10/14 08:50:07;;;;;;;6.43;2.10;;;24.00;55.90;;;;;;5015474;28;20042;-71
2021/10/14 08:52:32;;;;;;;7.13;1.80;;;24.00;55.80;;;;;;5017300;28;20056;-71
2021/10/14 08:54:58;;;;;;;10.20;2.00;;;24.10;55.80;;;;;;5014927;28;20045;-69
2021/10/14 08:57:25;;;;;;;7.28;1.95;;;24.10;55.70;;;;;;5015454;28;20465;-70
2021/10/14 08:59:50;;;;;;;9.88;2.05;;;24.10;55.70;;;;;;5014927;28;20038;-70
2021/10/14 09:02:20;;;;;;;8.38;1.88;;;24.10;55.60;;;;;;5014413;28;20053;-71
2021/10/14 09:04:48;;;;;;;6.60;1.83;;;24.20;56.10;;;;;;5013632;28;20450;-71
2021/10/14 09:07:15;;;;;;;7.80;1.70;;;24.20;55.50;;;;;;5014278;28;20048;-70
2021/10/14 09:09:42;;;;;;;12.73;1.85;;;24.20;55.30;;;;;;5015344;28;20046;-70
2021/10/14 09:12:09;;;;;;;8.30;1.90;;;24.20;55.20;;;;;;5022492;28;20041;-71
2021/10/14 09:14:57;;;;;;;7.72;2.17;;;24.20;55.60;;;;;;5012705;28;20455;-70
2021/10/14 09:17:38;;;;;;;8.40;2.00;;;24.30;55.80;;;;;;5013297;28;20038;-71
2021/10/14 09:20:35;;;;;;;8.93;2.25;;;24.30;55.40;;;;;;5012688;28;20054;-70
2021/10/14 09:23:21;;;;;;;7.43;1.70;;;24.40;55.20;;;;;;5014179;28;20045;-70
2021/10/14 09:25:51;;;;;;;6.18;1.60;;;24.30;55.40;;;;;;5013478;28;20144;-70
2021/10/14 09:28:28;;;;;;;9.32;1.60;;;24.30;55.20;;;;;;5013925;28;20037;-69
2021/10/14 09:30:58;;;;;;;7.30;1.75;;;24.40;55.30;;;;;;5015628;28;20052;-70
2021/10/14 09:33:40;;;;;;;5.55;1.50;;;24.40;55.40;;;;;;5014849;28;20037;-71
2021/10/14 09:36:26;;;;;;;9.00;1.67;;;24.40;55.20;;;;;;5012437;28;20034;-70
2021/10/14 09:39:02;;;;;;;21.40;1.90;;;24.40;55.00;;;;;;5014437;28;20331;-70
2021/10/14 09:41:31;;;;;;;10.27;1.80;;;24.50;55.20;;;;;;5012487;28;20038;-70
2021/10/14 09:44:05;;;;;;;6.90;1.52;;;24.40;54.90;;;;;;5012989;28;20044;-71
2021/10/14 09:46:43;;;;;;;5.30;1.60;;;24.50;55.10;;;;;;5012298;28;20037;-70
2021/10/14 09:49:11;;;;;;;7.53;1.70;;;24.50;55.10;;;;;;5029421;28;20050;-71
2021/10/14 09:51:38;;;;;;;6.60;1.90;;;24.50;55.10;;;;;;5013490;28;20417;-71
2021/10/14 09:54:05;;;;;;;5.45;1.42;;;24.50;55.10;;;;;;5011445;28;20046;-71
2021/10/14 09:56:31;;;;;;;8.13;1.65;;;24.50;55.20;;;;;;5015872;28;20029;-69
2021/10/14 09:58:59;;;;;;;7.03;1.85;;;24.50;55.10;;;;;;5014026;28;20060;-70
2021/10/14 10:01:25;;;;;;;9.32;1.50;;;24.50;55.30;;;;;;5014028;28;20405;-70
2021/10/14 10:03:52;;;;;;;6.05;1.55;;;24.50;55.20;;;;;;5015606;28;20033;-71
2021/10/14 10:06:24;;;;;;;7.38;1.63;;;24.60;55.40;;;;;;5012963;28;20568;-70
2021/10/14 10:08:52;;;;;;;6.18;1.67;;;24.60;54.70;;;;;;5013464;28;20808;-69
2021/10/14 10:11:21;;;;;;;8.20;1.88;;;24.30;54.30;;;;;;5012855;28;20092;-69
2021/10/14 10:13:50;;;;;;;8.13;1.60;;;24.20;54.50;;;;;;5013398;28;20076;-69
2021/10/14 10:16:20;;;;;;;7.47;1.60;;;24.00;54.50;;;;;;5014202;28;20168;-69
2021/10/14 10:18:50;;;;;;;5.05;1.67;;;23.90;54.70;;;;;;5014804;28;20073;-69
2021/10/14 10:21:32;;;;;;;7.65;1.90;;;23.80;54.70;;;;;;5014664;28;20048;-70
2021/10/14 10:23:58;;;;;;;7.15;1.75;;;23.70;55.10;;;;;;5010747;28;20046;-70
2021/10/14 10:26:34;;;;;;;11.38;1.67;;;23.70;55.20;;;;;;5012470;28;20125;-69
2021/10/14 10:29:19;;;;;;;5.50;1.50;;;23.70;55.10;;;;;;5012554;28;20041;-68
2021/10/14 10:31:55;;;;;;;6.40;1.52;;;23.60;55.20;;;;;;5009920;28;20037;-69
2021/10/14 10:37:16;;;;;;;6.63;1.65;;;23.50;55.30;;;;;;5013561;28;20592;-69
2021/10/14 10:39:55;;;;;;;7.05;1.73;;;23.50;55.40;;;;;;5011877;28;20158;-68
2021/10/14 10:42:27;;;;;;;5.25;1.63;;;23.40;55.30;;;;;;5012729;28;20045;-70
2021/10/14 10:44:53;;;;;;;5.55;1.67;;;23.30;55.20;;;;;;5012096;28;20152;-69
2021/10/14 10:47:38;;;;;;;5.70;1.50;;;23.30;55.30;;;;;;5015069;28;20049;-68
2021/10/14 10:50:06;;;;;;;7.88;1.60;;;23.30;55.40;;;;;;5013561;28;20050;-69
2021/10/14 10:52:33;;;;;;;7.47;1.33;;;23.30;56.30;;;;;;5013387;28;20034;-70
2021/10/14 10:54:59;;;;;;;5.22;1.52;;;23.40;55.60;;;;;;5011748;28;20038;-70
2021/10/14 10:57:52;;;;;;;7.70;1.80;;;23.50;55.50;;;;;;5012166;28;20121;-70
2021/10/14 11:00:19;;;;;;;8.80;1.40;;;23.60;55.30;;;;;;5010384;28;20082;-69
2021/10/14 11:02:45;;;;;;;5.93;1.42;;;23.70;55.20;;;;;;5013245;28;20453;-69
2021/10/14 11:05:12;;;;;;;7.00;1.30;;;23.80;55.20;;;;;;5014150;28;20041;-69
2021/10/14 11:07:38;;;;;;;4.63;1.30;;;23.90;55.10;;;;;;5014899;28;20490;-68
2021/10/14 11:10:05;;;;;;;5.75;1.42;;;24.00;55.30;;;;;;5014008;28;20068;-70
2021/10/14 11:12:31;;;;;;;5.05;1.48;;;24.00;55.10;;;;;;5014681;28;20141;-69
2021/10/14 11:14:57;;;;;;;4.07;1.30;;;24.10;55.20;;;;;;5012994;28;20429;-69
2021/10/14 11:17:26;;;;;;;7.07;1.30;;;24.20;55.20;;;;;;5014636;28;20052;-68
2021/10/14 11:20:07;;;;;;;6.82;1.65;;;24.20;55.10;;;;;;5014313;28;20046;-69
2021/10/14 11:22:33;;;;;;;4.82;1.30;;;24.20;54.90;;;;;;5016303;28;20163;-70
2021/10/14 11:25:03;;;;;;;6.47;1.40;;;24.30;54.90;;;;;;5016407;28;20053;-68
2021/10/14 11:27:29;;;;;;;5.50;1.17;;;24.30;55.00;;;;;;5017480;28;20987;-69
2021/10/14 11:30:17;;;;;;;5.93;1.40;;;24.40;55.00;;;;;;5017866;28;20045;-68
2021/10/14 11:32:57;;;;;;;5.82;1.40;;;24.40;54.90;;;;;;5018307;28;20094;-68
2021/10/14 11:35:24;;;;;;;5.53;1.23;;;24.50;54.90;;;;;;5016715;28;20089;-69
2021/10/14 11:37:50;;;;;;;5.07;1.25;;;24.50;54.70;;;;;;5014560;28;20550;-69
2021/10/14 11:40:40;;;;;;;4.97;1.30;;;24.50;54.80;;;;;;5016722;28;20095;-68
2021/10/14 11:43:06;;;;;;;3.60;1.05;;;24.50;54.70;;;;;;5014910;28;20505;-68
2021/10/14 11:45:32;;;;;;;5.63;1.30;;;24.60;55.20;;;;;;5016427;28;20052;-69
2021/10/14 11:47:58;;;;;;;5.38;1.42;;;24.60;55.00;;;;;;5015212;28;20053;-69
2021/10/14 11:50:27;;;;;;;4.43;1.20;;;24.60;55.10;;;;;;5016418;28;20045;-69
2021/10/14 11:53:04;;;;;;;5.88;1.35;;;24.60;55.40;;;;;;5023815;28;20139;-69
2021/10/14 11:55:30;;;;;;;5.55;1.35;;;24.60;55.20;;;;;;5017428;28;20471;-69
2021/10/14 11:58:03;;;;;;;7.35;1.23;;;24.60;55.00;;;;;;5017531;28;20045;-70
2021/10/14 12:00:29;;;;;;;4.13;1.10;;;24.60;56.30;;;;;;5015698;28;20041;-69
2021/10/14 12:02:57;;;;;;;6.82;1.25;;;24.60;55.40;;;;;;5017356;28;20038;-70
2021/10/14 12:05:24;;;;;;;5.28;1.33;;;24.60;55.20;;;;;;5014155;28;20045;-70
2021/10/14 12:07:53;;;;;;;6.72;1.40;;;24.60;54.70;;;;;;5015494;28;20451;-71
2021/10/14 12:10:41;;;;;;;3.92;1.10;;;24.70;55.30;;;;;;5015101;28;20125;-71
2021/10/14 12:13:08;;;;;;;4.07;1.10;;;24.70;55.10;;;;;;5015729;28;20034;-71
2021/10/14 12:15:34;;;;;;;4.20;1.27;;;24.70;55.40;;;;;;5013323;28;20134;-71
2021/10/14 12:18:00;;;;;;;4.82;1.38;;;24.70;55.90;;;;;;5015181;28;20520;-71
2021/10/14 12:20:27;;;;;;;4.35;1.23;;;24.70;55.10;;;;;;5014779;28;20120;-71
2021/10/14 12:23:05;;;;;;;5.30;1.23;;;24.70;55.10;;;;;;5014784;28;20053;-70
2021/10/14 12:25:34;;;;;;;3.78;1.15;;;24.70;55.20;;;;;;5015672;28;20756;-71
2021/10/14 12:28:00;;;;;;;5.78;1.17;;;24.70;55.30;;;;;;5016751;28;20052;-70
2021/10/14 12:30:39;;;;;;;5.95;1.20;;;24.80;55.40;;;;;;5015610;28;20057;-69
2021/10/14 12:33:10;;;;;;;5.45;1.35;;;24.80;55.60;;;;;;5014715;28;20104;-70
2021/10/14 12:35:37;;;;;;;3.65;1.10;;;24.80;55.60;;;;;;5014470;28;20049;-69
2021/10/14 12:38:14;;;;;;;4.05;1.15;;;24.80;55.70;;;;;;5014160;28;20413;-69
2021/10/14 12:40:48;;;;;;;4.47;1.10;;;24.80;56.20;;;;;;5016895;28;20038;-69
2021/10/14 12:43:25;;;;;;;7.10;1.23;;;24.80;55.90;;;;;;5014580;28;20049;-69
2021/10/14 12:46:10;;;;;;;5.93;1.00;;;24.80;56.00;;;;;;5014427;28;20041;-69
2021/10/14 12:48:49;;;;;;;3.30;1.10;;;24.80;56.40;;;;;;5014441;28;20145;-68